createdAt,value
2022-09-28T00:00:31.949Z,100.00
2022-09-28T00:02:58.605Z,100.00
2022-09-28T00:05:27.044Z,100.00
2022-09-28T00:07:54.226Z,100.00
2022-09-28T00:10:23.735Z,100.00
2022-09-28T00:12:51.023Z,100.00
2022-09-28T00:15:18.131Z,100.00
2022-09-28T00:17:45.046Z,100.00
2022-09-28T00:20:12.160Z,100.00
2022-09-28T00:22:38.941Z,100.00
2022-09-28T00:25:06.619Z,100.00
2022-09-28T00:27:33.195Z,100.00
2022-09-28T00:30:00.209Z,100.00
2022-09-28T00:32:27.994Z,100.00
2022-09-28T00:34:55.095Z,100.00
2022-09-28T00:37:21.885Z,100.00
2022-09-28T00:39:48.803Z,100.00
2022-09-28T00:42:15.391Z,100.00
2022-09-28T00:44:43.782Z,100.00
2022-09-28T00:47:10.601Z,100.00
2022-09-28T00:49:37.705Z,100.00
2022-09-28T00:52:06.404Z,100.00
2022-09-28T00:54:33.791Z,100.00
2022-09-28T00:57:01.252Z,100.00
2022-09-28T00:59:28.033Z,100.00
2022-09-28T01:01:54.750Z,100.00
2022-09-28T01:04:23.544Z,100.00
2022-09-28T01:06:52.877Z,100.00
2022-09-28T01:09:20.152Z,100.00
2022-09-28T01:11:46.983Z,100.00
2022-09-28T01:14:15.559Z,100.00
2022-09-28T01:17:00.624Z,100.00
2022-09-28T01:19:36.256Z,100.00
2022-09-28T01:22:20.543Z,100.00
2022-09-28T01:24:48.590Z,100.00
2022-09-28T01:27:39.547Z,100.00
2022-09-28T01:30:11.695Z,100.00
2022-09-28T01:32:41.490Z,100.00
2022-09-28T01:35:17.266Z,100.00
2022-09-28T01:37:52.236Z,100.00
2022-09-28T01:40:20.981Z,100.00
2022-09-28T01:42:50.395Z,100.00
2022-09-28T01:45:20.643Z,100.00
2022-09-28T01:47:49.945Z,100.00
2022-09-28T01:50:19.736Z,100.00
2022-09-28T01:52:49.139Z,100.00
2022-09-28T01:55:23.494Z,100.00
2022-09-28T01:58:13.768Z,100.00
2022-09-28T02:00:43.304Z,100.00
2022-09-28T02:03:13.782Z,100.00
2022-09-28T02:05:53.327Z,100.00
2022-09-28T02:08:40.150Z,100.00
2022-09-28T02:11:09.850Z,100.00
2022-09-28T02:13:42.737Z,100.00
2022-09-28T02:16:16.371Z,100.00
2022-09-28T02:18:43.138Z,100.00
2022-09-28T02:21:16.212Z,100.00
2022-09-28T02:23:49.982Z,100.00
2022-09-28T02:26:20.731Z,100.00
2022-09-28T02:28:48.762Z,100.00
2022-09-28T02:31:15.509Z,100.00
2022-09-28T02:33:43.961Z,100.00
2022-09-28T02:36:11.372Z,100.00
2022-09-28T02:38:38.742Z,100.00
2022-09-28T02:41:11.738Z,100.00
2022-09-28T02:43:41.320Z,100.00
2022-09-28T02:46:15.779Z,100.00
2022-09-28T02:49:20.194Z,100.00
2022-09-28T02:52:03.113Z,100.00
2022-09-28T02:54:29.693Z,100.00
2022-09-28T02:56:56.538Z,100.00
2022-09-28T02:59:23.073Z,100.00
2022-09-28T03:02:12.936Z,100.00
2022-09-28T03:04:39.704Z,100.00
2022-09-28T03:07:26.899Z,100.00
2022-09-28T03:10:00.247Z,100.00
2022-09-28T03:12:29.573Z,100.00
2022-09-28T03:15:07.224Z,100.00
2022-09-28T03:17:34.008Z,100.00
2022-09-28T03:20:00.711Z,100.00
2022-09-28T03:22:27.316Z,100.00
2022-09-28T03:24:53.887Z,100.00
2022-09-28T03:27:20.859Z,100.00
2022-09-28T03:29:47.466Z,100.00
2022-09-28T03:32:14.137Z,100.00
2022-09-28T03:34:40.990Z,100.00
2022-09-28T03:37:07.680Z,100.00
2022-09-28T03:39:35.020Z,100.00
2022-09-28T03:42:01.708Z,100.00
2022-09-28T03:44:30.648Z,100.00
2022-09-28T03:46:57.317Z,100.00
2022-09-28T03:49:23.982Z,100.00
2022-09-28T03:51:50.593Z,100.00
2022-09-28T03:54:17.189Z,100.00
2022-09-28T03:56:43.900Z,100.00
2022-09-28T03:59:10.916Z,100.00
2022-09-28T04:01:37.783Z,100.00
2022-09-28T04:04:04.982Z,100.00
2022-09-28T04:06:31.721Z,100.00
2022-09-28T04:08:58.668Z,100.00
2022-09-28T04:11:25.621Z,100.00
2022-09-28T04:13:52.294Z,100.00
2022-09-28T04:16:19.726Z,100.00
2022-09-28T04:19:04.676Z,100.00
2022-09-28T04:21:45.480Z,100.00
2022-09-28T04:24:14.615Z,100.00
2022-09-28T04:26:41.337Z,100.00
2022-09-28T04:29:16.688Z,100.00
2022-09-28T04:31:55.361Z,100.00
2022-09-28T04:34:43.167Z,100.00
2022-09-28T04:37:11.228Z,100.00
2022-09-28T04:39:39.843Z,100.00
2022-09-28T04:42:09.757Z,100.00
2022-09-28T04:44:38.042Z,100.00
2022-09-28T04:47:08.552Z,100.00
2022-09-28T04:49:53.995Z,100.00
2022-09-28T04:52:27.350Z,100.00
2022-09-28T04:54:58.120Z,100.00
2022-09-28T04:57:25.829Z,100.00
2022-09-28T05:00:00.151Z,100.00
2022-09-28T05:02:39.688Z,100.00
2022-09-28T05:05:26.544Z,100.00
2022-09-28T05:08:26.358Z,100.00
2022-09-28T05:11:00.157Z,100.00
2022-09-28T05:13:27.578Z,100.00
2022-09-28T05:15:58.852Z,100.00
2022-09-28T05:18:28.089Z,100.00
2022-09-28T05:21:02.064Z,100.00
2022-09-28T05:23:28.861Z,100.00
2022-09-28T05:25:56.942Z,100.00
2022-09-28T05:28:27.280Z,100.00
2022-09-28T05:31:12.431Z,100.00
2022-09-28T05:33:59.319Z,100.00
2022-09-28T05:36:27.504Z,100.00
2022-09-28T05:38:54.256Z,100.00
2022-09-28T05:41:20.929Z,100.00
2022-09-28T05:43:47.652Z,100.00
2022-09-28T05:46:14.743Z,100.00
2022-09-28T05:48:41.700Z,100.00
2022-09-28T05:51:10.123Z,100.00
2022-09-28T05:53:36.945Z,100.00
2022-09-28T05:56:04.515Z,100.00
2022-09-28T05:58:33.126Z,100.00
2022-09-28T06:01:00.045Z,100.00
2022-09-28T06:03:27.183Z,100.00
2022-09-28T06:05:54.103Z,100.00
2022-09-28T06:08:21.222Z,100.00
2022-09-28T06:10:58.999Z,100.00
2022-09-28T06:13:25.680Z,100.00
2022-09-28T06:15:52.426Z,100.00
2022-09-28T06:18:18.987Z,100.00
2022-09-28T06:21:05.914Z,100.00
2022-09-28T06:23:42.022Z,100.00
2022-09-28T06:26:10.264Z,100.00
2022-09-28T06:28:37.526Z,100.00
2022-09-28T06:31:05.747Z,100.00
2022-09-28T06:33:42.154Z,100.00
2022-09-28T06:36:10.034Z,100.00
2022-09-28T06:38:38.263Z,100.00
2022-09-28T06:41:05.504Z,100.00
2022-09-28T06:43:34.562Z,100.00
2022-09-28T06:46:14.320Z,100.00
2022-09-28T06:48:50.204Z,100.00
2022-09-28T06:51:39.437Z,100.00
2022-09-28T06:54:30.870Z,100.00
2022-09-28T06:57:02.412Z,100.00
2022-09-28T06:59:30.024Z,100.00
2022-09-28T07:01:58.681Z,100.00
2022-09-28T07:04:44.075Z,100.00
2022-09-28T07:07:29.674Z,100.00
2022-09-28T07:10:32.013Z,100.00
2022-09-28T07:13:04.985Z,100.00
2022-09-28T07:15:41.818Z,100.00
2022-09-28T07:18:12.021Z,100.00
2022-09-28T07:20:52.883Z,100.00
2022-09-28T07:23:21.415Z,100.00
2022-09-28T07:26:08.913Z,100.00
2022-09-28T07:29:05.464Z,100.00
2022-09-28T07:31:58.639Z,100.00
2022-09-28T07:35:08.080Z,100.00
2022-09-28T07:37:45.423Z,100.00
2022-09-28T07:40:31.332Z,100.00
2022-09-28T07:43:05.201Z,100.00
2022-09-28T07:45:35.919Z,100.00
2022-09-28T07:48:03.192Z,100.00
2022-09-28T07:50:56.653Z,100.00
2022-09-28T07:53:31.923Z,100.00
2022-09-28T07:56:25.884Z,100.00
2022-09-28T07:59:27.952Z,100.00
2022-09-28T08:02:13.909Z,100.00
2022-09-28T08:04:42.258Z,100.00
2022-09-28T08:07:11.237Z,100.00
2022-09-28T08:09:38.302Z,100.00
2022-09-28T08:12:18.378Z,100.00
2022-09-28T08:14:57.131Z,100.00
2022-09-28T08:17:39.207Z,100.00
2022-09-28T08:20:27.348Z,100.00
2022-09-28T08:22:54.425Z,100.00
2022-09-28T08:25:21.289Z,100.00
2022-09-28T08:27:49.724Z,100.00
2022-09-28T08:30:17.031Z,100.00
2022-09-28T08:32:53.023Z,100.00
2022-09-28T08:35:39.277Z,100.00
2022-09-28T08:38:13.730Z,100.00
2022-09-28T08:41:18.902Z,100.00
2022-09-28T08:44:09.102Z,100.00
2022-09-28T08:47:33.065Z,100.00
2022-09-28T08:50:27.151Z,100.00
2022-09-28T08:53:12.785Z,100.00
2022-09-28T08:56:01.796Z,100.00
2022-09-28T08:58:36.673Z,100.00
2022-09-28T09:01:07.920Z,100.00
2022-09-28T09:03:41.853Z,100.00
2022-09-28T09:06:52.068Z,100.00
2022-09-28T09:10:01.987Z,100.00
2022-09-28T09:12:46.143Z,100.00
2022-09-28T09:15:25.605Z,86.79
2022-09-28T09:18:20.041Z,86.11
2022-09-28T09:21:14.527Z,88.50
2022-09-28T09:24:08.538Z,88.22
2022-09-28T09:26:39.384Z,87.13
2022-09-28T09:29:56.251Z,83.96
2022-09-28T09:32:29.237Z,88.44
2022-09-28T09:35:18.896Z,88.36
2022-09-28T09:38:33.177Z,86.52
2022-09-28T09:41:05.668Z,91.29
2022-09-28T09:43:59.851Z,89.53
2022-09-28T09:46:58.870Z,90.76
2022-09-28T09:49:33.844Z,91.90
2022-09-28T09:52:12.851Z,78.85
2022-09-28T09:54:48.338Z,84.92
2022-09-28T09:57:42.553Z,79.83
2022-09-28T10:00:29.326Z,71.78
2022-09-28T10:03:18.468Z,75.78
2022-09-28T10:05:50.459Z,69.95
2022-09-28T10:08:22.085Z,70.55
2022-09-28T10:10:53.365Z,70.04
2022-09-28T10:13:21.219Z,69.33
2022-09-28T10:15:51.542Z,65.76
2022-09-28T10:18:44.847Z,67.41
2022-09-28T10:21:30.770Z,67.19
2022-09-28T10:24:02.806Z,59.43
2022-09-28T10:26:37.559Z,54.67
2022-09-28T10:29:20.139Z,55.83
2022-09-28T10:31:49.093Z,54.66
2022-09-28T10:34:30.004Z,58.84
2022-09-28T10:37:10.448Z,55.36
2022-09-28T10:40:30.555Z,53.22
2022-09-28T10:43:15.879Z,51.55
2022-09-28T10:45:45.048Z,53.24
2022-09-28T10:48:22.476Z,53.02
2022-09-28T10:51:05.245Z,51.08
2022-09-28T10:53:37.240Z,49.59
2022-09-28T10:56:23.129Z,51.02
2022-09-28T10:59:01.817Z,50.17
2022-09-28T11:01:44.475Z,46.88
2022-09-28T11:04:21.386Z,44.73
2022-09-28T11:06:48.467Z,45.76
2022-09-28T11:09:40.415Z,44.35
2022-09-28T11:12:15.569Z,45.55
2022-09-28T11:14:44.362Z,44.61
2022-09-28T11:17:32.534Z,42.23
2022-09-28T11:20:27.896Z,42.50
2022-09-28T11:22:58.891Z,41.11
2022-09-28T11:25:31.429Z,42.12
2022-09-28T11:28:04.671Z,40.77
2022-09-28T11:30:34.375Z,38.19
2022-09-28T11:33:35.050Z,39.41
2022-09-28T11:36:58.403Z,39.09
2022-09-28T11:39:40.677Z,41.82
2022-09-28T11:42:24.934Z,40.89
2022-09-28T11:45:02.546Z,40.19
2022-09-28T11:47:35.594Z,40.16
2022-09-28T11:50:14.465Z,41.20
2022-09-28T11:52:46.353Z,40.65
2022-09-28T11:55:24.692Z,39.25
2022-09-28T11:58:18.136Z,38.85
2022-09-28T12:01:09.581Z,38.82
2022-09-28T12:04:22.603Z,36.33
2022-09-28T12:07:23.381Z,37.06
2022-09-28T12:09:57.008Z,37.04
2022-09-28T12:12:32.857Z,35.60
2022-09-28T12:15:16.934Z,36.46
2022-09-28T12:17:49.532Z,37.40
2022-09-28T12:20:38.561Z,37.08
2022-09-28T12:23:11.957Z,37.86
2022-09-28T12:25:46.854Z,38.61
2022-09-28T12:28:39.883Z,39.73
2022-09-28T12:31:15.664Z,38.34
2022-09-28T12:33:48.170Z,39.16
2022-09-28T12:36:17.914Z,39.51
2022-09-28T12:39:17.516Z,36.26
2022-09-28T12:42:22.375Z,35.99
2022-09-28T12:45:07.027Z,36.39
2022-09-28T12:48:01.918Z,35.80
2022-09-28T12:51:03.698Z,37.17
2022-09-28T12:53:55.108Z,37.27
2022-09-28T12:56:37.141Z,36.56
2022-09-28T12:59:06.888Z,36.89
2022-09-28T13:01:40.133Z,37.62
2022-09-28T13:04:37.888Z,39.46
2022-09-28T13:07:10.914Z,40.42
2022-09-28T13:09:55.603Z,39.68
2022-09-28T13:12:37.971Z,40.23
2022-09-28T13:15:08.637Z,40.16
2022-09-28T13:17:53.618Z,40.19
2022-09-28T13:20:52.725Z,42.89
2022-09-28T13:23:35.257Z,43.76
2022-09-28T13:26:09.898Z,45.52
2022-09-28T13:28:38.088Z,44.88
2022-09-28T13:31:06.069Z,45.16
2022-09-28T13:33:36.971Z,45.33
2022-09-28T13:36:23.841Z,46.37
2022-09-28T13:38:52.058Z,46.33
2022-09-28T13:41:41.375Z,46.44
2022-09-28T13:44:20.288Z,47.08
2022-09-28T13:46:59.596Z,48.76
2022-09-28T13:49:29.233Z,49.33
2022-09-28T13:51:55.892Z,49.43
2022-09-28T13:54:30.538Z,49.21
2022-09-28T13:57:12.085Z,48.36
2022-09-28T14:00:13.143Z,47.16
2022-09-28T14:02:48.289Z,48.07
2022-09-28T14:05:27.085Z,45.99
2022-09-28T14:08:09.384Z,47.61
2022-09-28T14:10:49.427Z,50.80
2022-09-28T14:13:41.750Z,51.46
2022-09-28T14:16:17.699Z,53.86
2022-09-28T14:19:03.141Z,49.49
2022-09-28T14:21:32.705Z,48.74
2022-09-28T14:24:17.611Z,48.98
2022-09-28T14:27:25.807Z,47.96
2022-09-28T14:30:16.251Z,47.86
2022-09-28T14:32:53.138Z,48.13
2022-09-28T14:35:27.253Z,45.54
2022-09-28T14:38:19.274Z,44.81
2022-09-28T14:41:22.570Z,46.74
2022-09-28T14:43:49.557Z,47.46
2022-09-28T14:46:19.348Z,46.95
2022-09-28T14:48:55.151Z,49.38
2022-09-28T14:51:24.815Z,48.40
2022-09-28T14:53:53.133Z,43.74
2022-09-28T14:56:20.915Z,40.01
2022-09-28T14:58:54.838Z,39.05
2022-09-28T15:01:24.878Z,40.54
2022-09-28T15:03:56.616Z,40.50
2022-09-28T15:06:25.294Z,41.25
2022-09-28T15:08:52.138Z,42.72
2022-09-28T15:11:23.764Z,43.86
2022-09-28T15:14:02.570Z,43.35
2022-09-28T15:16:31.032Z,41.08
2022-09-28T15:19:51.804Z,38.57
2022-09-28T15:22:20.252Z,34.45
2022-09-28T15:25:02.008Z,31.99
2022-09-28T15:27:37.743Z,33.36
2022-09-28T15:30:27.363Z,31.86
2022-09-28T15:32:56.876Z,30.24
2022-09-28T15:35:28.145Z,30.56
2022-09-28T15:37:55.761Z,31.33
2022-09-28T15:40:34.996Z,33.19
2022-09-28T15:43:02.545Z,34.76
2022-09-28T15:45:40.129Z,37.62
2022-09-28T15:48:51.987Z,38.74
2022-09-28T15:51:21.517Z,41.26
2022-09-28T15:54:04.720Z,42.79
2022-09-28T15:56:31.812Z,44.64
2022-09-28T15:59:10.086Z,47.72
2022-09-28T16:01:39.802Z,49.40
2022-09-28T16:04:35.419Z,53.22
2022-09-28T16:07:11.988Z,53.09
2022-09-28T16:10:04.806Z,55.93
2022-09-28T16:12:37.441Z,58.23
2022-09-28T16:15:21.690Z,60.73
2022-09-28T16:17:52.937Z,65.07
2022-09-28T16:20:23.256Z,66.02
2022-09-28T16:22:50.655Z,68.17
2022-09-28T16:25:24.746Z,69.79
2022-09-28T16:27:53.792Z,71.50
2022-09-28T16:30:24.723Z,73.76
2022-09-28T16:32:53.142Z,74.56
2022-09-28T16:35:25.767Z,75.08
2022-09-28T16:38:16.239Z,77.07
2022-09-28T16:40:57.937Z,78.01
2022-09-28T16:43:30.292Z,77.76
2022-09-28T16:46:00.979Z,79.35
2022-09-28T16:48:30.365Z,83.10
2022-09-28T16:50:57.885Z,82.12
2022-09-28T16:53:45.007Z,84.75
2022-09-28T16:56:12.826Z,84.42
2022-09-28T16:58:39.751Z,86.67
2022-09-28T17:01:09.331Z,87.42
2022-09-28T17:03:36.191Z,87.71
2022-09-28T17:06:06.195Z,96.97
2022-09-28T17:08:35.595Z,89.42
2022-09-28T17:11:15.525Z,91.43
2022-09-28T17:13:45.899Z,94.26
2022-09-28T17:16:15.536Z,94.01
2022-09-28T17:18:42.533Z,94.57
2022-09-28T17:21:15.825Z,100.00
2022-09-28T17:23:44.242Z,100.00
2022-09-28T17:26:31.897Z,100.00
2022-09-28T17:28:59.484Z,100.00
2022-09-28T17:31:26.554Z,99.23
2022-09-28T17:33:54.649Z,100.00
2022-09-28T17:36:24.624Z,100.00
2022-09-28T17:38:52.469Z,100.00
2022-09-28T17:41:21.071Z,100.00
2022-09-28T17:43:49.643Z,100.00
2022-09-28T17:46:34.771Z,100.00
2022-09-28T17:49:04.503Z,100.00
2022-09-28T17:51:37.802Z,100.00
2022-09-28T17:54:07.004Z,100.00
2022-09-28T17:56:35.865Z,100.00
2022-09-28T17:59:05.839Z,100.00
2022-09-28T18:01:38.843Z,100.00
2022-09-28T18:04:08.691Z,100.00
2022-09-28T18:06:37.546Z,100.00
2022-09-28T18:09:05.643Z,100.00
2022-09-28T18:11:33.568Z,100.00
2022-09-28T18:14:00.733Z,100.00
2022-09-28T18:16:28.897Z,100.00
2022-09-28T18:18:56.087Z,100.00
2022-09-28T18:21:23.132Z,100.00
2022-09-28T18:23:49.994Z,100.00
2022-09-28T18:26:20.918Z,100.00
2022-09-28T18:28:47.653Z,100.00
2022-09-28T18:31:15.664Z,100.00
2022-09-28T18:33:52.866Z,100.00
2022-09-28T18:36:31.348Z,100.00
2022-09-28T18:39:01.003Z,100.00
2022-09-28T18:41:29.471Z,100.00
2022-09-28T18:44:02.518Z,100.00
2022-09-28T18:46:36.376Z,100.00
2022-09-28T18:49:06.400Z,99.82
2022-09-28T18:51:33.204Z,99.01
2022-09-28T18:54:01.072Z,96.55
2022-09-28T18:56:27.926Z,97.49
2022-09-28T18:58:54.856Z,97.59
2022-09-28T19:01:31.133Z,100.00
2022-09-28T19:04:00.625Z,100.00
2022-09-28T19:06:28.372Z,100.00
2022-09-28T19:08:56.252Z,100.00
2022-09-28T19:11:23.663Z,100.00
2022-09-28T19:13:51.232Z,100.00
2022-09-28T19:16:21.095Z,100.00
2022-09-28T19:18:48.577Z,100.00
2022-09-28T19:21:16.773Z,100.00
2022-09-28T19:23:48.917Z,100.00
2022-09-28T19:26:20.421Z,100.00
2022-09-28T19:28:47.681Z,100.00
2022-09-28T19:31:14.757Z,100.00
2022-09-28T19:33:41.873Z,100.00
2022-09-28T19:36:11.381Z,100.00
2022-09-28T19:38:39.469Z,100.00
2022-09-28T19:41:37.795Z,100.00
2022-09-28T19:44:17.058Z,100.00
2022-09-28T19:46:44.480Z,100.00
2022-09-28T19:49:13.431Z,100.00
2022-09-28T19:52:01.709Z,100.00
2022-09-28T19:54:35.529Z,100.00
2022-09-28T19:57:08.669Z,100.00
2022-09-28T19:59:39.287Z,100.00
2022-09-28T20:02:07.792Z,100.00
2022-09-28T20:04:34.619Z,100.00
2022-09-28T20:07:01.952Z,100.00
2022-09-28T20:09:29.579Z,100.00
2022-09-28T20:11:57.087Z,100.00
2022-09-28T20:14:26.433Z,100.00
2022-09-28T20:16:57.334Z,100.00
2022-09-28T20:19:24.512Z,100.00
2022-09-28T20:21:51.308Z,100.00
2022-09-28T20:24:18.619Z,100.00
2022-09-28T20:26:48.377Z,100.00
2022-09-28T20:29:15.516Z,100.00
2022-09-28T20:31:43.010Z,100.00
2022-09-28T20:34:09.761Z,100.00
2022-09-28T20:36:36.581Z,100.00
2022-09-28T20:39:05.181Z,100.00
2022-09-28T20:41:36.773Z,100.00
2022-09-28T20:44:06.324Z,100.00
2022-09-28T20:46:37.211Z,100.00
2022-09-28T20:49:05.237Z,100.00
2022-09-28T20:51:32.421Z,100.00
2022-09-28T20:53:59.862Z,100.00
2022-09-28T20:56:38.918Z,100.00
2022-09-28T20:59:11.958Z,100.00
2022-09-28T21:01:38.897Z,100.00
2022-09-28T21:04:07.421Z,100.00
2022-09-28T21:06:36.733Z,100.00
2022-09-28T21:09:04.950Z,100.00
2022-09-28T21:11:33.163Z,100.00
2022-09-28T21:14:02.436Z,100.00
2022-09-28T21:16:32.124Z,100.00
2022-09-28T21:18:59.187Z,100.00
2022-09-28T21:21:26.638Z,100.00
2022-09-28T21:23:57.209Z,100.00
2022-09-28T21:26:26.892Z,100.00
2022-09-28T21:28:54.458Z,100.00
2022-09-28T21:31:27.509Z,100.00
2022-09-28T21:33:55.611Z,100.00
2022-09-28T21:36:22.454Z,100.00
2022-09-28T21:38:59.466Z,100.00
2022-09-28T21:41:26.729Z,100.00
2022-09-28T21:43:53.722Z,100.00
2022-09-28T21:46:20.884Z,100.00
2022-09-28T21:48:52.803Z,100.00
2022-09-28T21:51:19.919Z,100.00
2022-09-28T21:53:48.587Z,100.00
2022-09-28T21:56:15.336Z,100.00
2022-09-28T21:58:42.156Z,100.00
2022-09-28T22:01:21.237Z,100.00
2022-09-28T22:03:55.203Z,100.00
2022-09-28T22:06:24.267Z,100.00
2022-09-28T22:08:51.506Z,100.00
2022-09-28T22:11:22.419Z,100.00
2022-09-28T22:13:52.013Z,100.00
2022-09-28T22:16:22.892Z,100.00
2022-09-28T22:18:50.324Z,100.00
2022-09-28T22:21:23.171Z,100.00
2022-09-28T22:23:51.101Z,100.00
2022-09-28T22:26:22.712Z,100.00
2022-09-28T22:29:00.803Z,100.00
2022-09-28T22:31:30.785Z,100.00
2022-09-28T22:33:58.212Z,100.00
2022-09-28T22:36:25.981Z,100.00
2022-09-28T22:38:54.616Z,100.00
2022-09-28T22:41:22.034Z,100.00
2022-09-28T22:43:51.269Z,100.00
2022-09-28T22:46:22.493Z,100.00
2022-09-28T22:48:52.905Z,100.00
2022-09-28T22:51:20.930Z,100.00
2022-09-28T22:53:47.928Z,100.00
2022-09-28T22:56:18.672Z,100.00
2022-09-28T22:58:57.473Z,100.00
2022-09-28T23:01:27.066Z,100.00
2022-09-28T23:04:02.618Z,100.00
2022-09-28T23:06:30.891Z,100.00
2022-09-28T23:08:57.910Z,100.00
2022-09-28T23:11:24.901Z,100.00
2022-09-28T23:13:53.486Z,100.00
2022-09-28T23:16:20.625Z,100.00
2022-09-28T23:18:49.340Z,100.00
2022-09-28T23:21:19.165Z,100.00
2022-09-28T23:23:51.253Z,100.00
2022-09-28T23:26:21.789Z,100.00
2022-09-28T23:28:48.621Z,100.00
2022-09-28T23:31:18.443Z,100.00
2022-09-28T23:33:45.550Z,100.00
2022-09-28T23:36:12.922Z,100.00
2022-09-28T23:38:39.927Z,100.00
2022-09-28T23:41:07.063Z,100.00
2022-09-28T23:43:34.499Z,100.00
2022-09-28T23:46:01.629Z,100.00
2022-09-28T23:48:28.443Z,100.00
2022-09-28T23:50:55.409Z,100.00
2022-09-28T23:53:22.223Z,100.00
2022-09-28T23:55:58.623Z,100.00
2022-09-28T23:58:25.783Z,100.00
